sensor_id;sensor_type;location;lat;lon;timestamp;P1;durP1;ratioP1;P2;durP2;ratioP2
54897;SDS011;40800;52.704;6.398;2022-10-16T00:00:42;11.23;;;10.43;;
54897;SDS011;40800;52.704;6.398;2022-10-16T00:03:09;12.25;;;11.13;;
54897;SDS011;40800;52.704;6.398;2022-10-16T00:05:39;11.40;;;10.55;;
54897;SDS011;40800;52.704;6.398;2022-10-16T00:08:06;11.98;;;10.88;;
54897;SDS011;40800;52.704;6.398;2022-10-16T00:10:33;12.10;;;11.00;;
54897;SDS011;40800;52.704;6.398;2022-10-16T00:12:58;11.80;;;10.70;;
54897;SDS011;40800;52.704;6.398;2022-10-16T00:15:24;11.43;;;10.32;;
54897;SDS011;40800;52.704;6.398;2022-10-16T00:17:50;11.55;;;10.55;;
54897;SDS011;40800;52.704;6.398;2022-10-16T00:20:15;11.85;;;10.75;;
54897;SDS011;40800;52.704;6.398;2022-10-16T00:22:41;11.15;;;10.18;;
54897;SDS011;40800;52.704;6.398;2022-10-16T00:25:07;11.38;;;10.32;;
54897;SDS011;40800;52.704;6.398;2022-10-16T00:27:33;11.57;;;10.38;;
54897;SDS011;40800;52.704;6.398;2022-10-16T00:29:59;10.70;;;9.90;;
54897;SDS011;40800;52.704;6.398;2022-10-16T00:32:24;10.55;;;9.70;;
54897;SDS011;40800;52.704;6.398;2022-10-16T00:34:50;10.95;;;9.95;;
54897;SDS011;40800;52.704;6.398;2022-10-16T00:37:15;11.25;;;10.35;;
54897;SDS011;40800;52.704;6.398;2022-10-16T00:39:41;11.10;;;10.20;;
54897;SDS011;40800;52.704;6.398;2022-10-16T00:42:09;10.88;;;9.98;;
54897;SDS011;40800;52.704;6.398;2022-10-16T00:44:41;11.25;;;10.15;;
54897;SDS011;40800;52.704;6.398;2022-10-16T00:47:11;11.38;;;10.27;;
54897;SDS011;40800;52.704;6.398;2022-10-16T00:49:42;11.57;;;10.38;;
54897;SDS011;40800;52.704;6.398;2022-10-16T00:52:08;10.95;;;10.05;;
54897;SDS011;40800;52.704;6.398;2022-10-16T00:54:34;11.45;;;10.35;;
54897;SDS011;40800;52.704;6.398;2022-10-16T00:57:01;11.60;;;10.50;;
54897;SDS011;40800;52.704;6.398;2022-10-16T00:59:34;11.20;;;10.20;;
54897;SDS011;40800;52.704;6.398;2022-10-16T01:02:03;11.15;;;10.35;;
54897;SDS011;40800;52.704;6.398;2022-10-16T01:04:35;11.45;;;10.32;;
54897;SDS011;40800;52.704;6.398;2022-10-16T01:15:28;11.68;;;10.55;;
54897;SDS011;40800;52.704;6.398;2022-10-16T01:18:23;10.43;;;9.65;;
54897;SDS011;40800;52.704;6.398;2022-10-16T01:20:54;10.80;;;9.90;;
54897;SDS011;40800;52.704;6.398;2022-10-16T01:31:39;11.07;;;10.07;;
54897;SDS011;40800;52.704;6.398;2022-10-16T01:34:16;11.13;;;10.02;;
54897;SDS011;40800;52.704;6.398;2022-10-16T01:36:48;11.35;;;10.45;;
54897;SDS011;40800;52.704;6.398;2022-10-16T01:39:24;11.65;;;10.65;;
54897;SDS011;40800;52.704;6.398;2022-10-16T01:41:55;11.70;;;10.80;;
54897;SDS011;40800;52.704;6.398;2022-10-16T01:44:29;11.20;;;10.38;;
54897;SDS011;40800;52.704;6.398;2022-10-16T01:46:57;11.43;;;10.52;;
54897;SDS011;40800;52.704;6.398;2022-10-16T01:49:25;11.25;;;10.25;;
54897;SDS011;40800;52.704;6.398;2022-10-16T01:51:55;11.20;;;10.38;;
54897;SDS011;40800;52.704;6.398;2022-10-16T01:54:25;11.40;;;10.45;;
54897;SDS011;40800;52.704;6.398;2022-10-16T01:56:54;11.63;;;10.60;;
54897;SDS011;40800;52.704;6.398;2022-10-16T01:59:21;11.15;;;10.35;;
54897;SDS011;40800;52.704;6.398;2022-10-16T02:01:52;10.88;;;10.07;;
54897;SDS011;40800;52.704;6.398;2022-10-16T02:04:26;12.20;;;11.10;;
54897;SDS011;40800;52.704;6.398;2022-10-16T02:06:55;11.55;;;10.63;;
54897;SDS011;40800;52.704;6.398;2022-10-16T02:09:21;11.35;;;10.52;;
54897;SDS011;40800;52.704;6.398;2022-10-16T02:11:47;12.15;;;11.10;;
54897;SDS011;40800;52.704;6.398;2022-10-16T02:14:14;11.73;;;10.77;;
54897;SDS011;40800;52.704;6.398;2022-10-16T02:16:41;11.85;;;10.95;;
54897;SDS011;40800;52.704;6.398;2022-10-16T02:19:09;12.07;;;11.07;;
54897;SDS011;40800;52.704;6.398;2022-10-16T02:21:57;11.67;;;10.50;;
54897;SDS011;40800;52.704;6.398;2022-10-16T02:27:08;11.48;;;10.57;;
54897;SDS011;40800;52.704;6.398;2022-10-16T02:29:38;11.73;;;10.77;;
54897;SDS011;40800;52.704;6.398;2022-10-16T02:32:13;11.70;;;10.90;;
54897;SDS011;40800;52.704;6.398;2022-10-16T02:34:40;11.93;;;10.88;;
54897;SDS011;40800;52.704;6.398;2022-10-16T02:37:06;12.40;;;11.30;;
54897;SDS011;40800;52.704;6.398;2022-10-16T02:39:33;11.65;;;10.77;;
54897;SDS011;40800;52.704;6.398;2022-10-16T02:41:59;12.60;;;11.48;;
54897;SDS011;40800;52.704;6.398;2022-10-16T02:44:25;11.75;;;10.85;;
54897;SDS011;40800;52.704;6.398;2022-10-16T02:46:50;12.05;;;10.85;;
54897;SDS011;40800;52.704;6.398;2022-10-16T02:49:16;12.27;;;11.05;;
54897;SDS011;40800;52.704;6.398;2022-10-16T02:51:43;12.05;;;11.13;;
54897;SDS011;40800;52.704;6.398;2022-10-16T02:54:08;11.55;;;10.68;;
54897;SDS011;40800;52.704;6.398;2022-10-16T02:56:34;11.65;;;10.70;;
54897;SDS011;40800;52.704;6.398;2022-10-16T02:58:59;11.70;;;10.80;;
54897;SDS011;40800;52.704;6.398;2022-10-16T03:01:25;12.27;;;11.27;;
54897;SDS011;40800;52.704;6.398;2022-10-16T03:03:51;11.43;;;10.63;;
54897;SDS011;40800;52.704;6.398;2022-10-16T03:06:16;11.90;;;11.00;;
54897;SDS011;40800;52.704;6.398;2022-10-16T03:08:42;11.85;;;10.70;;
54897;SDS011;40800;52.704;6.398;2022-10-16T03:11:07;11.48;;;10.57;;
54897;SDS011;40800;52.704;6.398;2022-10-16T03:13:33;11.68;;;10.80;;
54897;SDS011;40800;52.704;6.398;2022-10-16T03:15:59;11.70;;;10.80;;
54897;SDS011;40800;52.704;6.398;2022-10-16T03:18:24;11.32;;;10.52;;
54897;SDS011;40800;52.704;6.398;2022-10-16T03:20:50;11.40;;;10.68;;
54897;SDS011;40800;52.704;6.398;2022-10-16T03:23:15;11.55;;;10.70;;
54897;SDS011;40800;52.704;6.398;2022-10-16T03:25:41;11.85;;;10.80;;
54897;SDS011;40800;52.704;6.398;2022-10-16T03:28:06;11.85;;;10.73;;
54897;SDS011;40800;52.704;6.398;2022-10-16T03:30:32;11.43;;;10.52;;
54897;SDS011;40800;52.704;6.398;2022-10-16T03:32:58;11.70;;;10.70;;
54897;SDS011;40800;52.704;6.398;2022-10-16T03:35:23;11.60;;;10.70;;
54897;SDS011;40800;52.704;6.398;2022-10-16T03:37:50;11.80;;;10.77;;
54897;SDS011;40800;52.704;6.398;2022-10-16T03:40:16;12.05;;;11.23;;
54897;SDS011;40800;52.704;6.398;2022-10-16T03:42:42;11.88;;;11.00;;
54897;SDS011;40800;52.704;6.398;2022-10-16T03:45:08;11.95;;;11.10;;
54897;SDS011;40800;52.704;6.398;2022-10-16T03:47:34;12.67;;;11.77;;
54897;SDS011;40800;52.704;6.398;2022-10-16T03:50:00;12.73;;;11.50;;
54897;SDS011;40800;52.704;6.398;2022-10-16T03:52:26;12.57;;;11.50;;
54897;SDS011;40800;52.704;6.398;2022-10-16T03:54:52;11.98;;;11.18;;
54897;SDS011;40800;52.704;6.398;2022-10-16T03:57:17;12.50;;;11.52;;
54897;SDS011;40800;52.704;6.398;2022-10-16T03:59:43;12.70;;;11.63;;
54897;SDS011;40800;52.704;6.398;2022-10-16T04:02:09;13.90;;;12.40;;
54897;SDS011;40800;52.704;6.398;2022-10-16T04:04:34;13.20;;;12.20;;
54897;SDS011;40800;52.704;6.398;2022-10-16T04:07:00;12.95;;;12.05;;
54897;SDS011;40800;52.704;6.398;2022-10-16T04:09:26;12.80;;;11.85;;
54897;SDS011;40800;52.704;6.398;2022-10-16T04:11:52;12.95;;;11.98;;
54897;SDS011;40800;52.704;6.398;2022-10-16T04:14:17;12.98;;;11.90;;
54897;SDS011;40800;52.704;6.398;2022-10-16T04:16:43;13.30;;;12.18;;
54897;SDS011;40800;52.704;6.398;2022-10-16T04:19:09;13.20;;;12.30;;
54897;SDS011;40800;52.704;6.398;2022-10-16T04:21:35;13.32;;;12.32;;
54897;SDS011;40800;52.704;6.398;2022-10-16T04:24:01;13.00;;;12.05;;
54897;SDS011;40800;52.704;6.398;2022-10-16T04:26:26;13.25;;;12.25;;
54897;SDS011;40800;52.704;6.398;2022-10-16T04:28:52;13.23;;;12.32;;
54897;SDS011;40800;52.704;6.398;2022-10-16T04:31:18;12.97;;;12.10;;
54897;SDS011;40800;52.704;6.398;2022-10-16T04:33:45;13.80;;;12.90;;
54897;SDS011;40800;52.704;6.398;2022-10-16T04:36:10;13.45;;;12.48;;
54897;SDS011;40800;52.704;6.398;2022-10-16T04:38:36;13.90;;;12.70;;
54897;SDS011;40800;52.704;6.398;2022-10-16T04:41:02;14.23;;;13.10;;
54897;SDS011;40800;52.704;6.398;2022-10-16T04:43:29;13.68;;;12.77;;
54897;SDS011;40800;52.704;6.398;2022-10-16T04:45:54;13.93;;;12.93;;
54897;SDS011;40800;52.704;6.398;2022-10-16T04:48:21;13.23;;;12.32;;
54897;SDS011;40800;52.704;6.398;2022-10-16T04:50:47;13.73;;;12.63;;
54897;SDS011;40800;52.704;6.398;2022-10-16T04:53:13;13.50;;;12.50;;
54897;SDS011;40800;52.704;6.398;2022-10-16T04:55:38;14.05;;;12.88;;
54897;SDS011;40800;52.704;6.398;2022-10-16T04:58:04;14.05;;;12.95;;
54897;SDS011;40800;52.704;6.398;2022-10-16T05:00:30;15.07;;;13.50;;
54897;SDS011;40800;52.704;6.398;2022-10-16T05:02:56;13.65;;;12.65;;
54897;SDS011;40800;52.704;6.398;2022-10-16T05:05:24;13.77;;;12.60;;
54897;SDS011;40800;52.704;6.398;2022-10-16T05:07:50;13.82;;;12.73;;
54897;SDS011;40800;52.704;6.398;2022-10-16T05:10:16;13.90;;;12.80;;
54897;SDS011;40800;52.704;6.398;2022-10-16T05:12:42;13.77;;;12.77;;
54897;SDS011;40800;52.704;6.398;2022-10-16T05:15:07;13.77;;;12.65;;
54897;SDS011;40800;52.704;6.398;2022-10-16T05:17:33;14.63;;;13.53;;
54897;SDS011;40800;52.704;6.398;2022-10-16T05:19:59;13.80;;;12.70;;
54897;SDS011;40800;52.704;6.398;2022-10-16T05:22:24;13.70;;;12.80;;
54897;SDS011;40800;52.704;6.398;2022-10-16T05:24:50;14.05;;;12.95;;
54897;SDS011;40800;52.704;6.398;2022-10-16T05:27:16;13.40;;;12.50;;
54897;SDS011;40800;52.704;6.398;2022-10-16T05:29:47;14.30;;;13.20;;
54897;SDS011;40800;52.704;6.398;2022-10-16T05:32:14;14.10;;;13.02;;
54897;SDS011;40800;52.704;6.398;2022-10-16T05:34:40;13.80;;;12.70;;
54897;SDS011;40800;52.704;6.398;2022-10-16T05:37:06;14.15;;;13.15;;
54897;SDS011;40800;52.704;6.398;2022-10-16T05:39:32;13.70;;;12.80;;
54897;SDS011;40800;52.704;6.398;2022-10-16T05:41:57;14.05;;;12.85;;
54897;SDS011;40800;52.704;6.398;2022-10-16T05:44:23;13.70;;;12.80;;
54897;SDS011;40800;52.704;6.398;2022-10-16T05:46:49;13.88;;;12.98;;
54897;SDS011;40800;52.704;6.398;2022-10-16T05:49:14;14.18;;;13.07;;
54897;SDS011;40800;52.704;6.398;2022-10-16T05:51:40;13.75;;;12.75;;
54897;SDS011;40800;52.704;6.398;2022-10-16T05:54:06;13.88;;;12.95;;
54897;SDS011;40800;52.704;6.398;2022-10-16T05:56:32;13.80;;;12.60;;
54897;SDS011;40800;52.704;6.398;2022-10-16T05:58:58;13.35;;;12.40;;
54897;SDS011;40800;52.704;6.398;2022-10-16T06:01:23;13.85;;;12.80;;
54897;SDS011;40800;52.704;6.398;2022-10-16T06:03:52;13.73;;;12.73;;
54897;SDS011;40800;52.704;6.398;2022-10-16T06:06:19;13.50;;;12.60;;
54897;SDS011;40800;52.704;6.398;2022-10-16T06:08:47;13.85;;;12.77;;
54897;SDS011;40800;52.704;6.398;2022-10-16T06:11:15;12.93;;;11.88;;
54897;SDS011;40800;52.704;6.398;2022-10-16T06:13:43;13.30;;;12.30;;
54897;SDS011;40800;52.704;6.398;2022-10-16T06:16:10;13.25;;;12.20;;
54897;SDS011;40800;52.704;6.398;2022-10-16T06:18:36;13.73;;;12.43;;
54897;SDS011;40800;52.704;6.398;2022-10-16T06:21:12;13.30;;;12.50;;
54897;SDS011;40800;52.704;6.398;2022-10-16T06:23:41;13.82;;;12.68;;
54897;SDS011;40800;52.704;6.398;2022-10-16T06:26:08;13.32;;;12.43;;
54897;SDS011;40800;52.704;6.398;2022-10-16T06:28:35;13.40;;;12.50;;
54897;SDS011;40800;52.704;6.398;2022-10-16T06:31:01;13.00;;;12.10;;
54897;SDS011;40800;52.704;6.398;2022-10-16T06:35:53;12.90;;;12.00;;
54897;SDS011;40800;52.704;6.398;2022-10-16T06:38:18;13.02;;;12.05;;
54897;SDS011;40800;52.704;6.398;2022-10-16T06:40:44;12.82;;;11.93;;
54897;SDS011;40800;52.704;6.398;2022-10-16T06:43:10;13.48;;;12.20;;
54897;SDS011;40800;52.704;6.398;2022-10-16T06:45:35;13.10;;;12.02;;
54897;SDS011;40800;52.704;6.398;2022-10-16T06:48:02;12.65;;;11.68;;
54897;SDS011;40800;52.704;6.398;2022-10-16T06:50:27;12.75;;;11.85;;
54897;SDS011;40800;52.704;6.398;2022-10-16T06:52:53;12.50;;;11.65;;
54897;SDS011;40800;52.704;6.398;2022-10-16T06:55:19;12.65;;;11.77;;
54897;SDS011;40800;52.704;6.398;2022-10-16T06:57:46;12.77;;;11.75;;
54897;SDS011;40800;52.704;6.398;2022-10-16T07:00:12;12.73;;;11.82;;
54897;SDS011;40800;52.704;6.398;2022-10-16T07:02:38;12.88;;;11.88;;
54897;SDS011;40800;52.704;6.398;2022-10-16T07:05:03;12.80;;;11.70;;
54897;SDS011;40800;52.704;6.398;2022-10-16T07:07:30;12.70;;;11.75;;
54897;SDS011;40800;52.704;6.398;2022-10-16T07:09:55;12.75;;;11.65;;
54897;SDS011;40800;52.704;6.398;2022-10-16T07:12:21;13.15;;;11.98;;
54897;SDS011;40800;52.704;6.398;2022-10-16T07:14:47;12.93;;;11.93;;
54897;SDS011;40800;52.704;6.398;2022-10-16T07:17:12;13.10;;;12.00;;
54897;SDS011;40800;52.704;6.398;2022-10-16T07:19:38;12.73;;;11.82;;
54897;SDS011;40800;52.704;6.398;2022-10-16T07:22:03;12.20;;;11.40;;
54897;SDS011;40800;52.704;6.398;2022-10-16T07:24:29;12.70;;;11.63;;
54897;SDS011;40800;52.704;6.398;2022-10-16T07:26:55;12.10;;;11.30;;
54897;SDS011;40800;52.704;6.398;2022-10-16T07:29:21;12.77;;;11.55;;
54897;SDS011;40800;52.704;6.398;2022-10-16T07:31:47;12.93;;;11.85;;
54897;SDS011;40800;52.704;6.398;2022-10-16T07:34:14;12.27;;;11.20;;
54897;SDS011;40800;52.704;6.398;2022-10-16T07:36:42;12.43;;;11.48;;
54897;SDS011;40800;52.704;6.398;2022-10-16T07:39:08;11.80;;;10.90;;
54897;SDS011;40800;52.704;6.398;2022-10-16T07:41:34;12.25;;;11.35;;
54897;SDS011;40800;52.704;6.398;2022-10-16T07:44:01;11.43;;;10.38;;
54897;SDS011;40800;52.704;6.398;2022-10-16T07:46:28;11.13;;;10.25;;
54897;SDS011;40800;52.704;6.398;2022-10-16T07:48:54;10.80;;;10.02;;
54897;SDS011;40800;52.704;6.398;2022-10-16T07:51:20;10.60;;;9.90;;
54897;SDS011;40800;52.704;6.398;2022-10-16T07:53:47;10.65;;;9.85;;
54897;SDS011;40800;52.704;6.398;2022-10-16T07:56:14;10.52;;;9.73;;
54897;SDS011;40800;52.704;6.398;2022-10-16T08:01:07;10.60;;;9.65;;
54897;SDS011;40800;52.704;6.398;2022-10-16T08:03:35;10.60;;;9.90;;
54897;SDS011;40800;52.704;6.398;2022-10-16T08:06:00;11.35;;;10.35;;
54897;SDS011;40800;52.704;6.398;2022-10-16T08:08:27;11.15;;;10.25;;
54897;SDS011;40800;52.704;6.398;2022-10-16T08:10:53;11.43;;;10.52;;
54897;SDS011;40800;52.704;6.398;2022-10-16T08:13:18;11.02;;;10.32;;
54897;SDS011;40800;52.704;6.398;2022-10-16T08:15:45;12.20;;;11.13;;
54897;SDS011;40800;52.704;6.398;2022-10-16T08:18:11;12.63;;;11.52;;
54897;SDS011;40800;52.704;6.398;2022-10-16T08:20:38;12.65;;;11.70;;
54897;SDS011;40800;52.704;6.398;2022-10-16T08:23:05;13.32;;;12.07;;
54897;SDS011;40800;52.704;6.398;2022-10-16T08:25:33;13.23;;;12.20;;
54897;SDS011;40800;52.704;6.398;2022-10-16T08:28:00;12.82;;;11.90;;
54897;SDS011;40800;52.704;6.398;2022-10-16T08:30:28;12.70;;;11.80;;
54897;SDS011;40800;52.704;6.398;2022-10-16T08:32:53;13.32;;;12.18;;
54897;SDS011;40800;52.704;6.398;2022-10-16T08:35:19;12.60;;;11.70;;
54897;SDS011;40800;52.704;6.398;2022-10-16T08:37:44;12.70;;;11.52;;
54897;SDS011;40800;52.704;6.398;2022-10-16T08:40:20;12.60;;;11.70;;
54897;SDS011;40800;52.704;6.398;2022-10-16T08:42:53;12.45;;;11.40;;
54897;SDS011;40800;52.704;6.398;2022-10-16T08:45:36;12.25;;;11.35;;
54897;SDS011;40800;52.704;6.398;2022-10-16T08:48:23;12.18;;;11.18;;
54897;SDS011;40800;52.704;6.398;2022-10-16T08:50:55;11.88;;;10.98;;
54897;SDS011;40800;52.704;6.398;2022-10-16T08:53:24;12.15;;;11.10;;
54897;SDS011;40800;52.704;6.398;2022-10-16T08:55:55;11.68;;;10.85;;
54897;SDS011;40800;52.704;6.398;2022-10-16T09:00:48;12.00;;;11.00;;
54897;SDS011;40800;52.704;6.398;2022-10-16T09:08:34;11.88;;;10.77;;
54897;SDS011;40800;52.704;6.398;2022-10-16T09:11:32;12.50;;;11.23;;
54897;SDS011;40800;52.704;6.398;2022-10-16T09:17:44;11.63;;;10.65;;
54897;SDS011;40800;52.704;6.398;2022-10-16T09:19:56;11.20;;;10.07;;
54897;SDS011;40800;52.704;6.398;2022-10-16T09:22:44;11.43;;;10.27;;
54897;SDS011;40800;52.704;6.398;2022-10-16T09:25:14;11.30;;;10.20;;
54897;SDS011;40800;52.704;6.398;2022-10-16T09:27:42;10.95;;;9.95;;
54897;SDS011;40800;52.704;6.398;2022-10-16T09:30:16;12.98;;;9.95;;
54897;SDS011;40800;52.704;6.398;2022-10-16T09:32:43;11.45;;;9.25;;
54897;SDS011;40800;52.704;6.398;2022-10-16T09:35:14;10.18;;;9.27;;
54897;SDS011;40800;52.704;6.398;2022-10-16T09:37:44;11.10;;;9.15;;
54897;SDS011;40800;52.704;6.398;2022-10-16T09:40:12;11.30;;;9.07;;
54897;SDS011;40800;52.704;6.398;2022-10-16T09:43:40;10.45;;;9.35;;
54897;SDS011;40800;52.704;6.398;2022-10-16T09:45:54;10.90;;;9.27;;
54897;SDS011;40800;52.704;6.398;2022-10-16T09:48:25;10.57;;;9.48;;
54897;SDS011;40800;52.704;6.398;2022-10-16T09:51:04;9.90;;;8.90;;
54897;SDS011;40800;52.704;6.398;2022-10-16T09:53:38;15.35;;;9.13;;
54897;SDS011;40800;52.704;6.398;2022-10-16T09:56:06;10.18;;;8.57;;
54897;SDS011;40800;52.704;6.398;2022-10-16T09:58:35;10.63;;;8.90;;
54897;SDS011;40800;52.704;6.398;2022-10-16T10:01:00;13.10;;;9.35;;
54897;SDS011;40800;52.704;6.398;2022-10-16T10:05:57;10.93;;;8.55;;
54897;SDS011;40800;52.704;6.398;2022-10-16T10:08:23;9.88;;;8.35;;
54897;SDS011;40800;52.704;6.398;2022-10-16T10:10:49;11.18;;;8.35;;
54897;SDS011;40800;52.704;6.398;2022-10-16T10:13:17;12.77;;;7.80;;
54897;SDS011;40800;52.704;6.398;2022-10-16T10:15:51;13.27;;;7.88;;
54897;SDS011;40800;52.704;6.398;2022-10-16T10:18:18;11.98;;;7.95;;
54897;SDS011;40800;52.704;6.398;2022-10-16T10:20:57;11.82;;;7.70;;
54897;SDS011;40800;52.704;6.398;2022-10-16T10:23:24;10.18;;;7.75;;
54897;SDS011;40800;52.704;6.398;2022-10-16T10:25:54;12.00;;;6.60;;
54897;SDS011;40800;52.704;6.398;2022-10-16T10:32:21;9.55;;;6.18;;
54897;SDS011;40800;52.704;6.398;2022-10-16T10:37:25;11.20;;;7.47;;
54897;SDS011;40800;52.704;6.398;2022-10-16T10:43:06;9.98;;;6.43;;
54897;SDS011;40800;52.704;6.398;2022-10-16T10:45:46;10.35;;;6.65;;
54897;SDS011;40800;52.704;6.398;2022-10-16T10:50:52;10.70;;;6.10;;
54897;SDS011;40800;52.704;6.398;2022-10-16T10:53:36;11.38;;;6.45;;
54897;SDS011;40800;52.704;6.398;2022-10-16T10:58:57;10.90;;;6.82;;
54897;SDS011;40800;52.704;6.398;2022-10-16T11:04:32;11.48;;;6.35;;
54897;SDS011;40800;52.704;6.398;2022-10-16T11:07:15;11.52;;;6.68;;
54897;SDS011;40800;52.704;6.398;2022-10-16T11:09:49;10.20;;;6.22;;
54897;SDS011;40800;52.704;6.398;2022-10-16T11:12:20;9.80;;;6.70;;
54897;SDS011;40800;52.704;6.398;2022-10-16T11:15:00;11.27;;;6.50;;
54897;SDS011;40800;52.704;6.398;2022-10-16T11:20:45;12.93;;;6.32;;
54897;SDS011;40800;52.704;6.398;2022-10-16T11:23:21;10.00;;;6.60;;
54897;SDS011;40800;52.704;6.398;2022-10-16T11:25:51;10.15;;;6.00;;
54897;SDS011;40800;52.704;6.398;2022-10-16T11:28:29;10.93;;;6.05;;
54897;SDS011;40800;52.704;6.398;2022-10-16T11:31:11;9.80;;;5.68;;
54897;SDS011;40800;52.704;6.398;2022-10-16T11:36:30;13.30;;;5.22;;
54897;SDS011;40800;52.704;6.398;2022-10-16T11:39:00;7.80;;;4.72;;
54897;SDS011;40800;52.704;6.398;2022-10-16T11:45:13;9.57;;;5.30;;
54897;SDS011;40800;52.704;6.398;2022-10-16T11:50:53;10.60;;;5.97;;
54897;SDS011;40800;52.704;6.398;2022-10-16T11:53:16;9.48;;;5.03;;
54897;SDS011;40800;52.704;6.398;2022-10-16T11:55:54;8.82;;;4.53;;
54897;SDS011;40800;52.704;6.398;2022-10-16T12:03:36;10.90;;;5.53;;
54897;SDS011;40800;52.704;6.398;2022-10-16T12:06:31;9.50;;;5.47;;
54897;SDS011;40800;52.704;6.398;2022-10-16T12:09:02;11.93;;;5.20;;
54897;SDS011;40800;52.704;6.398;2022-10-16T12:16:38;10.13;;;5.20;;
54897;SDS011;40800;52.704;6.398;2022-10-16T12:19:16;13.52;;;5.20;;
54897;SDS011;40800;52.704;6.398;2022-10-16T12:21:43;11.80;;;6.13;;
54897;SDS011;40800;52.704;6.398;2022-10-16T12:26:53;10.40;;;5.55;;
54897;SDS011;40800;52.704;6.398;2022-10-16T12:29:36;15.35;;;6.05;;
54897;SDS011;40800;52.704;6.398;2022-10-16T12:32:45;10.95;;;5.80;;
54897;SDS011;40800;52.704;6.398;2022-10-16T12:34:55;10.77;;;5.93;;
54897;SDS011;40800;52.704;6.398;2022-10-16T12:37:22;9.68;;;5.13;;
54897;SDS011;40800;52.704;6.398;2022-10-16T12:39:50;12.88;;;4.70;;
54897;SDS011;40800;52.704;6.398;2022-10-16T12:44:53;11.48;;;5.25;;
54897;SDS011;40800;52.704;6.398;2022-10-16T12:50:26;10.55;;;4.75;;
54897;SDS011;40800;52.704;6.398;2022-10-16T12:52:57;10.00;;;4.20;;
54897;SDS011;40800;52.704;6.398;2022-10-16T12:55:23;10.95;;;3.50;;
54897;SDS011;40800;52.704;6.398;2022-10-16T13:11:49;9.02;;;3.15;;
54897;SDS011;40800;52.704;6.398;2022-10-16T13:17:25;9.02;;;2.95;;
54897;SDS011;40800;52.704;6.398;2022-10-16T13:20:06;10.43;;;3.17;;
54897;SDS011;40800;52.704;6.398;2022-10-16T13:25:28;11.60;;;2.65;;
54897;SDS011;40800;52.704;6.398;2022-10-16T13:28:08;9.32;;;2.42;;
54897;SDS011;40800;52.704;6.398;2022-10-16T13:33:06;8.35;;;2.13;;
54897;SDS011;40800;52.704;6.398;2022-10-16T13:35:46;6.50;;;1.95;;
54897;SDS011;40800;52.704;6.398;2022-10-16T13:38:14;10.50;;;2.42;;
54897;SDS011;40800;52.704;6.398;2022-10-16T13:41:16;7.53;;;2.60;;
54897;SDS011;40800;52.704;6.398;2022-10-16T13:43:42;7.22;;;1.83;;
54897;SDS011;40800;52.704;6.398;2022-10-16T13:48:42;7.20;;;2.28;;
54897;SDS011;40800;52.704;6.398;2022-10-16T13:51:16;8.30;;;2.63;;
54897;SDS011;40800;52.704;6.398;2022-10-16T13:53:43;8.85;;;2.28;;
54897;SDS011;40800;52.704;6.398;2022-10-16T13:56:17;8.18;;;2.53;;
54897;SDS011;40800;52.704;6.398;2022-10-16T13:58:45;11.68;;;3.05;;
54897;SDS011;40800;52.704;6.398;2022-10-16T14:01:19;11.05;;;3.55;;
54897;SDS011;40800;52.704;6.398;2022-10-16T14:03:48;8.35;;;2.65;;
54897;SDS011;40800;52.704;6.398;2022-10-16T14:06:16;8.68;;;2.20;;
54897;SDS011;40800;52.704;6.398;2022-10-16T14:08:44;6.22;;;2.22;;
54897;SDS011;40800;52.704;6.398;2022-10-16T14:11:13;6.18;;;2.42;;
54897;SDS011;40800;52.704;6.398;2022-10-16T14:13:48;7.43;;;2.38;;
54897;SDS011;40800;52.704;6.398;2022-10-16T14:16:18;9.07;;;2.90;;
54897;SDS011;40800;52.704;6.398;2022-10-16T14:18:46;6.38;;;2.50;;
54897;SDS011;40800;52.704;6.398;2022-10-16T14:21:26;6.70;;;2.47;;
54897;SDS011;40800;52.704;6.398;2022-10-16T14:23:53;10.25;;;2.78;;
54897;SDS011;40800;52.704;6.398;2022-10-16T14:26:20;8.20;;;2.45;;
54897;SDS011;40800;52.704;6.398;2022-10-16T14:31:36;8.95;;;2.70;;
54897;SDS011;40800;52.704;6.398;2022-10-16T14:34:02;7.80;;;2.83;;
54897;SDS011;40800;52.704;6.398;2022-10-16T14:36:29;12.18;;;2.65;;
54897;SDS011;40800;52.704;6.398;2022-10-16T14:41:41;8.73;;;2.50;;
54897;SDS011;40800;52.704;6.398;2022-10-16T14:44:11;9.30;;;2.47;;
54897;SDS011;40800;52.704;6.398;2022-10-16T14:46:38;8.38;;;2.45;;
54897;SDS011;40800;52.704;6.398;2022-10-16T14:51:41;7.47;;;2.40;;
54897;SDS011;40800;52.704;6.398;2022-10-16T14:54:09;7.20;;;2.20;;
54897;SDS011;40800;52.704;6.398;2022-10-16T14:59:17;8.40;;;2.40;;
54897;SDS011;40800;52.704;6.398;2022-10-16T15:01:56;8.52;;;2.47;;
54897;SDS011;40800;52.704;6.398;2022-10-16T15:04:22;6.78;;;2.53;;
54897;SDS011;40800;52.704;6.398;2022-10-16T15:06:47;6.47;;;2.50;;
54897;SDS011;40800;52.704;6.398;2022-10-16T15:09:13;7.60;;;2.58;;
54897;SDS011;40800;52.704;6.398;2022-10-16T15:11:39;7.15;;;2.63;;
54897;SDS011;40800;52.704;6.398;2022-10-16T15:14:05;8.02;;;2.40;;
54897;SDS011;40800;52.704;6.398;2022-10-16T15:16:30;7.65;;;2.60;;
54897;SDS011;40800;52.704;6.398;2022-10-16T15:18:56;9.35;;;2.75;;
54897;SDS011;40800;52.704;6.398;2022-10-16T15:21:29;5.57;;;2.47;;
54897;SDS011;40800;52.704;6.398;2022-10-16T15:23:56;8.32;;;2.65;;
54897;SDS011;40800;52.704;6.398;2022-10-16T15:26:23;8.38;;;2.40;;
54897;SDS011;40800;52.704;6.398;2022-10-16T15:28:49;8.02;;;2.65;;
54897;SDS011;40800;52.704;6.398;2022-10-16T15:31:15;7.80;;;2.50;;
54897;SDS011;40800;52.704;6.398;2022-10-16T15:33:40;7.88;;;2.28;;
54897;SDS011;40800;52.704;6.398;2022-10-16T15:36:07;8.77;;;2.73;;
54897;SDS011;40800;52.704;6.398;2022-10-16T15:38:33;7.25;;;2.38;;
54897;SDS011;40800;52.704;6.398;2022-10-16T15:40:59;9.98;;;2.40;;
54897;SDS011;40800;52.704;6.398;2022-10-16T15:43:24;10.27;;;2.67;;
54897;SDS011;40800;52.704;6.398;2022-10-16T15:46:03;8.05;;;2.22;;
54897;SDS011;40800;52.704;6.398;2022-10-16T15:48:31;6.57;;;2.35;;
54897;SDS011;40800;52.704;6.398;2022-10-16T15:53:24;7.32;;;2.20;;
54897;SDS011;40800;52.704;6.398;2022-10-16T15:55:49;7.88;;;2.55;;
54897;SDS011;40800;52.704;6.398;2022-10-16T15:58:15;7.07;;;2.38;;
54897;SDS011;40800;52.704;6.398;2022-10-16T16:00:41;16.35;;;2.95;;
54897;SDS011;40800;52.704;6.398;2022-10-16T16:03:07;7.10;;;2.42;;
54897;SDS011;40800;52.704;6.398;2022-10-16T16:05:32;6.95;;;2.58;;
54897;SDS011;40800;52.704;6.398;2022-10-16T16:08:00;7.03;;;2.10;;
54897;SDS011;40800;52.704;6.398;2022-10-16T16:10:25;6.32;;;2.55;;
54897;SDS011;40800;52.704;6.398;2022-10-16T16:12:51;9.00;;;2.53;;
54897;SDS011;40800;52.704;6.398;2022-10-16T16:15:20;7.25;;;2.30;;
54897;SDS011;40800;52.704;6.398;2022-10-16T16:17:47;6.50;;;2.60;;
54897;SDS011;40800;52.704;6.398;2022-10-16T16:20:13;7.55;;;2.28;;
54897;SDS011;40800;52.704;6.398;2022-10-16T16:22:39;9.02;;;2.38;;
54897;SDS011;40800;52.704;6.398;2022-10-16T16:25:05;10.25;;;2.35;;
54897;SDS011;40800;52.704;6.398;2022-10-16T16:27:31;8.63;;;2.47;;
54897;SDS011;40800;52.704;6.398;2022-10-16T16:29:58;6.28;;;2.13;;
54897;SDS011;40800;52.704;6.398;2022-10-16T16:32:24;9.75;;;2.50;;
54897;SDS011;40800;52.704;6.398;2022-10-16T16:34:50;6.60;;;2.60;;
54897;SDS011;40800;52.704;6.398;2022-10-16T16:37:15;7.93;;;2.33;;
54897;SDS011;40800;52.704;6.398;2022-10-16T16:39:41;5.93;;;2.10;;
54897;SDS011;40800;52.704;6.398;2022-10-16T16:42:07;8.65;;;2.40;;
54897;SDS011;40800;52.704;6.398;2022-10-16T16:44:33;7.35;;;2.42;;